메인 페이지
METAR-TAF:

METAR-TAF

공항 :

나그푸르, 인도

위도: 21-06N, 경도: 079-03E, 고도: 308m

현재 날씨관측

예보는 10분 전, 18:30시(UTC)에 발표되었습니다.
무풍
온도 25°C
습도 69%
기압 1017 hPa
시정: 3000m
고도 2000ft 상공 구름 조금
연무

METAR: VANP 201830Z 00000KT 3000 HZ FEW020 25/19 Q1017 NOSIG

시각: 00:10 (18:40 UTC)

예보

예보는 1 시간 40분 전, 17:00시(UTC)에 발표되었습니다.
예보 대상 시간: 20일 18시부터 21일 03시까지 (UTC)
남동3kt
시정: 3000m
고도 2000ft 상공 구름 조금
고도 10000ft 상공 구름 보통
연무
전환 중
21일 00시부터 21일 02시까지 (UTC)
kt
시정: 2000m
고도 1800ft 상공 구름 보통
고도 9000ft 상공 구름 많음
약한비, 박무
일시적
20일 23시부터 21일 03시까지 (UTC)
10kt, 순간 최대 풍속 20kt
시정: 1500m
고도 1200ft 상공 구름 보통
고도 1800ft 상공 구름 보통
고도 3000ft 상공 구름 조금, 적란운.
고도 8000ft 상공 구름 많음
뇌우, 비

TAF: VANP 201700Z 2018/2103 14003KT 3000 HZ FEW020 SCT100 BECMG 2100/2102 00000KT 2000 -RA BR SCT018 BKN090 TEMPO 2023/2103 27010G20KT 1500 TSRA SCT012 SCT018 FEW030CB BKN080

4,000개 이상의 공항 관측 자료 및 예보 (METAR 및 TAF 보고).

지도상에서 검색 가능한 기상관측소가 노란 점과 빨간 점으로 표시되어 있습니다.

기상관측소 명을 보려면 표시 위로 마우스를 이동하세요.

날씨 관측과 예보를 보려면 클릭하세요.

지도 변경 : 확대하려면 엑스 표시가 있는 녹색 버튼, 축소하려면 빼기 표시가 있는 녹색 버튼, 다음 페이지의 지도를 보려면 녹색 화살표를 클릭하세요.


METAR-TAF: